createdAt,value
2018-01-14T00:02:04.825Z,16.03
2018-01-14T00:04:33.379Z,20.40
2018-01-14T00:07:02.561Z,17.13
2018-01-14T00:09:31.687Z,24.90
2018-01-14T00:12:00.609Z,18.67
2018-01-14T00:14:28.929Z,18.30
2018-01-14T00:16:57.216Z,16.97
2018-01-14T00:19:28.879Z,19.93
2018-01-14T00:21:57.962Z,28.53
2018-01-14T00:24:27.405Z,20.27
2018-01-14T00:26:56.557Z,21.03
2018-01-14T00:29:25.629Z,18.30
2018-01-14T00:31:54.316Z,20.10
2018-01-14T00:34:23.848Z,20.20
2018-01-14T00:36:52.619Z,18.70
2018-01-14T00:39:20.960Z,19.50
2018-01-14T00:41:49.361Z,20.03
2018-01-14T00:44:17.681Z,18.10
2018-01-14T00:46:45.990Z,17.27
2018-01-14T00:49:15.096Z,18.73
2018-01-14T00:51:44.996Z,17.10
2018-01-14T00:54:13.688Z,18.83
2018-01-14T00:56:42.455Z,18.47
2018-01-14T00:59:12.106Z,18.27
2018-01-14T01:01:40.292Z,19.00
2018-01-14T01:04:08.628Z,22.67
2018-01-14T01:06:37.803Z,23.03
2018-01-14T01:09:06.160Z,35.63
2018-01-14T01:11:36.083Z,24.77
2018-01-14T01:14:05.633Z,20.77
2018-01-14T01:16:35.468Z,25.80
2018-01-14T01:19:04.270Z,17.07
2018-01-14T01:21:32.700Z,16.17
2018-01-14T01:24:01.153Z,21.10
2018-01-14T01:26:31.011Z,18.67
2018-01-14T01:28:59.264Z,18.30
2018-01-14T01:31:27.533Z,16.80
2018-01-14T01:33:57.350Z,22.80
2018-01-14T01:36:25.649Z,16.50
2018-01-14T01:38:53.916Z,15.30
2018-01-14T01:41:22.201Z,20.80
2018-01-14T01:43:50.477Z,18.80
2018-01-14T01:46:19.532Z,21.30
2018-01-14T01:48:47.825Z,19.13
2018-01-14T01:51:17.580Z,15.57
2018-01-14T01:53:45.821Z,16.63
2018-01-14T01:56:14.105Z,16.43
2018-01-14T01:58:42.348Z,15.03
2018-01-14T02:01:10.588Z,19.43
2018-01-14T02:03:39.410Z,17.87
2018-01-14T02:06:08.424Z,15.03
2018-01-14T02:08:37.432Z,15.63
2018-01-14T02:11:06.881Z,15.97
2018-01-14T02:13:35.918Z,17.83
2018-01-14T02:16:05.316Z,17.13
2018-01-14T02:18:33.629Z,16.50
2018-01-14T02:21:01.896Z,16.60
2018-01-14T02:23:30.137Z,15.57
2018-01-14T02:25:58.417Z,18.40
2018-01-14T02:28:27.428Z,19.90
2018-01-14T02:30:55.672Z,17.27
2018-01-14T02:33:23.947Z,18.07
2018-01-14T02:35:52.200Z,17.90
2018-01-14T02:38:22.053Z,18.57
2018-01-14T02:40:50.343Z,16.47
2018-01-14T02:43:18.588Z,23.00
2018-01-14T02:45:46.837Z,17.70
2018-01-14T02:48:16.256Z,17.43
2018-01-14T02:50:44.496Z,20.50
2018-01-14T02:53:13.513Z,17.70
2018-01-14T02:55:41.812Z,19.80
2018-01-14T02:58:17.174Z,19.37
2018-01-14T03:00:46.405Z,19.00
2018-01-14T03:03:15.784Z,18.90
2018-01-14T03:05:44.028Z,14.40
2018-01-14T03:08:12.317Z,20.07
2018-01-14T03:10:41.324Z,21.10
2018-01-14T03:13:10.705Z,20.03
2018-01-14T03:15:39.493Z,16.60
2018-01-14T03:18:07.739Z,19.80
2018-01-14T03:20:36.000Z,18.40
2018-01-14T03:23:05.229Z,16.37
2018-01-14T03:25:34.627Z,16.30
2018-01-14T03:28:04.025Z,21.03
2018-01-14T03:30:33.668Z,20.10
2018-01-14T03:33:02.234Z,17.70
2018-01-14T03:35:30.471Z,17.20
2018-01-14T03:37:58.760Z,20.80
2018-01-14T03:40:27.076Z,20.97
2018-01-14T03:42:55.328Z,16.37
2018-01-14T03:45:23.617Z,17.63
2018-01-14T03:47:51.872Z,18.27
2018-01-14T03:50:20.132Z,21.37
2018-01-14T03:52:48.404Z,18.50
2018-01-14T03:55:17.412Z,18.53
2018-01-14T03:57:46.796Z,17.23
2018-01-14T04:00:15.481Z,18.90
2018-01-14T04:02:43.724Z,17.97
2018-01-14T04:05:11.982Z,18.43
2018-01-14T04:07:41.759Z,19.80
2018-01-14T04:10:09.999Z,22.97
2018-01-14T04:12:39.013Z,19.03
2018-01-14T04:15:08.469Z,20.90
2018-01-14T04:17:36.724Z,18.03
2018-01-14T04:20:04.976Z,16.63
2018-01-14T04:22:34.483Z,21.53
2018-01-14T04:25:03.157Z,23.20
2018-01-14T04:27:31.425Z,21.37
2018-01-14T04:29:59.713Z,19.33
2018-01-14T04:32:27.959Z,16.47
2018-01-14T04:34:56.209Z,17.93
2018-01-14T04:37:25.268Z,24.30
2018-01-14T04:39:53.524Z,22.20
2018-01-14T04:42:21.868Z,19.73
2018-01-14T04:44:50.444Z,15.20
2018-01-14T04:47:19.527Z,19.73
2018-01-14T04:49:47.783Z,17.00
2018-01-14T04:52:16.061Z,16.03
2018-01-14T04:54:45.670Z,18.93
2018-01-14T04:57:14.197Z,18.90
2018-01-14T04:59:43.257Z,20.77
2018-01-14T05:02:11.549Z,20.37
2018-01-14T05:04:39.840Z,22.33
2018-01-14T05:07:08.168Z,20.60
2018-01-14T05:09:39.043Z,17.27
2018-01-14T05:12:09.237Z,19.10
2018-01-14T05:14:39.070Z,18.03
2018-01-14T05:17:07.296Z,19.23
2018-01-14T05:19:36.952Z,18.50
2018-01-14T05:22:05.087Z,17.13
2018-01-14T05:24:33.373Z,17.97
2018-01-14T05:27:01.669Z,21.03
2018-01-14T05:29:29.976Z,17.50
2018-01-14T05:31:58.234Z,18.60
2018-01-14T05:34:26.508Z,17.97
2018-01-14T05:36:54.756Z,22.00
2018-01-14T05:39:24.130Z,20.60
2018-01-14T05:41:52.424Z,20.93
2018-01-14T05:44:20.896Z,17.80
2018-01-14T05:46:49.929Z,17.53
2018-01-14T05:49:18.495Z,19.63
2018-01-14T05:51:47.493Z,19.80
2018-01-14T05:54:15.744Z,20.50
2018-01-14T05:56:45.392Z,21.07
2018-01-14T05:59:14.289Z,22.90
2018-01-14T06:01:43.310Z,18.07
2018-01-14T06:04:12.348Z,19.70
2018-01-14T06:06:41.360Z,20.23
2018-01-14T06:09:09.608Z,23.40
2018-01-14T06:11:37.887Z,18.80
2018-01-14T06:14:06.153Z,17.87
2018-01-14T06:16:35.551Z,17.23
2018-01-14T06:19:04.037Z,19.43
2018-01-14T06:21:32.325Z,18.00
2018-01-14T06:24:00.582Z,21.00
2018-01-14T06:26:30.217Z,18.50
2018-01-14T06:28:59.104Z,17.67
2018-01-14T06:31:27.361Z,22.10
2018-01-14T06:33:55.636Z,18.40
2018-01-14T06:36:24.652Z,19.67
2018-01-14T06:38:54.253Z,21.53
2018-01-14T06:41:23.181Z,17.57
2018-01-14T06:43:52.784Z,26.73
2018-01-14T06:46:20.961Z,18.60
2018-01-14T06:48:49.252Z,20.23
2018-01-14T06:51:17.485Z,19.53
2018-01-14T06:53:45.742Z,19.00
2018-01-14T06:56:15.533Z,21.17
2018-01-14T06:59:01.400Z,19.23
2018-01-14T07:01:30.701Z,20.27
2018-01-14T07:03:58.937Z,21.07
2018-01-14T07:06:28.320Z,18.00
2018-01-14T07:08:56.611Z,16.70
2018-01-14T07:11:24.854Z,20.27
2018-01-14T07:13:54.236Z,19.73
2018-01-14T07:16:23.288Z,18.00
2018-01-14T07:18:51.964Z,17.73
2018-01-14T07:21:20.254Z,20.20
2018-01-14T07:23:48.944Z,21.60
2018-01-14T07:26:17.189Z,20.97
2018-01-14T07:28:46.795Z,21.37
2018-01-14T07:31:14.953Z,17.80
2018-01-14T07:33:43.194Z,18.90
2018-01-14T07:36:11.441Z,21.60
2018-01-14T07:38:39.725Z,23.63
2018-01-14T07:41:08.736Z,18.37
2018-01-14T07:43:37.749Z,19.00
2018-01-14T07:46:06.208Z,17.93
2018-01-14T07:48:37.180Z,20.63
2018-01-14T07:51:06.505Z,20.53
2018-01-14T07:53:35.542Z,14.73
2018-01-14T07:56:04.935Z,18.93
2018-01-14T07:58:33.261Z,18.97
2018-01-14T08:01:01.537Z,18.57
2018-01-14T08:03:29.788Z,19.93
2018-01-14T08:05:59.423Z,19.20
2018-01-14T08:08:28.689Z,19.33
2018-01-14T08:10:56.939Z,14.83
2018-01-14T08:13:25.216Z,17.17
2018-01-14T08:15:54.241Z,17.27
2018-01-14T08:18:23.836Z,17.37
2018-01-14T08:20:52.389Z,15.73
2018-01-14T08:23:21.432Z,14.70
2018-01-14T08:25:49.698Z,21.50
2018-01-14T08:28:18.887Z,19.80
2018-01-14T08:30:48.277Z,20.23
2018-01-14T08:33:16.516Z,20.50
2018-01-14T08:35:44.793Z,18.50
2018-01-14T08:38:14.176Z,20.13
2018-01-14T08:40:43.193Z,15.30
2018-01-14T08:43:12.606Z,20.80
2018-01-14T08:45:42.364Z,16.97
2018-01-14T08:48:11.377Z,17.70
2018-01-14T08:50:40.424Z,16.30
2018-01-14T08:53:08.673Z,16.30
2018-01-14T08:55:36.925Z,14.77
2018-01-14T08:58:05.212Z,17.87
2018-01-14T09:00:34.251Z,13.40
2018-01-14T09:03:03.278Z,16.47
2018-01-14T09:05:32.940Z,17.63
2018-01-14T09:08:02.434Z,18.83
2018-01-14T09:10:31.714Z,15.30
2018-01-14T09:13:00.005Z,17.93
2018-01-14T09:15:28.244Z,16.80
2018-01-14T09:17:56.508Z,13.40
2018-01-14T09:20:24.784Z,19.63
2018-01-14T09:22:53.032Z,18.13
2018-01-14T09:25:21.282Z,15.90
2018-01-14T09:27:50.472Z,18.10
2018-01-14T09:30:32.023Z,18.90
2018-01-14T09:33:00.712Z,15.10
2018-01-14T09:35:28.953Z,20.30
2018-01-14T09:37:57.197Z,19.07
2018-01-14T09:40:26.997Z,18.00
2018-01-14T09:42:56.005Z,16.23
2018-01-14T09:45:25.017Z,16.90
2018-01-14T09:47:53.368Z,18.80
2018-01-14T09:50:21.613Z,24.93
2018-01-14T09:52:49.852Z,16.50
2018-01-14T09:55:18.161Z,17.83
2018-01-14T09:57:46.433Z,23.17
2018-01-14T10:00:14.709Z,17.83
2018-01-14T10:02:42.994Z,16.63
2018-01-14T10:05:12.784Z,17.73
2018-01-14T10:07:42.974Z,17.73
2018-01-14T10:10:12.008Z,17.77
2018-01-14T10:12:40.297Z,20.10
2018-01-14T10:15:08.617Z,19.83
2018-01-14T10:17:36.878Z,25.23
2018-01-14T10:20:05.144Z,20.83
2018-01-14T10:22:34.581Z,19.00
2018-01-14T10:25:03.267Z,19.57
2018-01-14T10:27:31.545Z,19.70
2018-01-14T10:29:59.853Z,20.03
2018-01-14T10:32:28.097Z,18.63
2018-01-14T10:34:56.331Z,17.90
2018-01-14T10:37:25.963Z,12.57
2018-01-14T10:39:54.089Z,22.63
2018-01-14T10:42:22.369Z,18.70
2018-01-14T10:44:50.653Z,15.97
2018-01-14T10:47:18.897Z,16.33
2018-01-14T10:49:47.133Z,16.80
2018-01-14T10:52:16.385Z,19.03
2018-01-14T10:54:44.629Z,17.83
2018-01-14T10:57:12.877Z,16.53
2018-01-14T10:59:42.572Z,15.30
2018-01-14T11:02:10.817Z,15.30
2018-01-14T11:04:39.496Z,21.50
2018-01-14T11:07:07.819Z,20.40
2018-01-14T11:09:36.981Z,14.87
2018-01-14T11:12:05.997Z,17.97
2018-01-14T11:14:35.512Z,16.63
2018-01-14T11:17:03.822Z,15.53
2018-01-14T11:19:32.861Z,20.97
2018-01-14T11:22:02.558Z,18.13
2018-01-14T11:24:31.291Z,17.00
2018-01-14T11:26:59.593Z,18.33
2018-01-14T11:32:28.533Z,23.20
2018-01-14T11:34:56.850Z,19.80
2018-01-14T11:37:25.085Z,15.40
2018-01-14T11:39:54.089Z,19.03
2018-01-14T11:42:23.709Z,19.87
2018-01-14T11:44:52.228Z,22.20
2018-01-14T11:47:21.262Z,17.30
2018-01-14T11:49:50.929Z,13.97
2018-01-14T11:52:19.045Z,23.43
2018-01-14T11:54:48.102Z,18.00
2018-01-14T11:57:17.797Z,19.73
2018-01-14T11:59:45.908Z,18.40
2018-01-14T12:02:14.150Z,17.00
2018-01-14T12:04:42.449Z,22.87
2018-01-14T12:07:11.452Z,14.97
2018-01-14T12:09:39.732Z,14.83
2018-01-14T12:12:08.078Z,16.90
2018-01-14T12:14:37.846Z,20.27
2018-01-14T12:17:06.129Z,21.80
2018-01-14T12:19:35.174Z,26.80
2018-01-14T12:22:07.006Z,26.17
2018-01-14T12:24:35.299Z,16.60
2018-01-14T12:27:04.969Z,17.80
2018-01-14T12:29:33.153Z,23.40
2018-01-14T12:35:08.340Z,22.43
2018-01-14T12:37:37.985Z,19.40
2018-01-14T12:40:06.144Z,25.27
2018-01-14T12:42:35.814Z,24.27
2018-01-14T12:45:05.117Z,24.87
2018-01-14T12:47:34.873Z,24.27
2018-01-14T12:50:03.180Z,23.47
2018-01-14T12:52:31.500Z,23.97
2018-01-14T12:55:00.881Z,18.97
2018-01-14T12:57:29.165Z,17.53
2018-01-14T12:59:57.993Z,18.40
2018-01-14T13:02:26.212Z,17.17
2018-01-14T13:04:54.537Z,21.97
2018-01-14T13:07:22.858Z,41.07
2018-01-14T13:09:52.283Z,36.13
2018-01-14T13:12:22.074Z,34.00
2018-01-14T13:14:51.610Z,31.80
2018-01-14T13:17:33.396Z,25.17
2018-01-14T13:20:03.609Z,21.93
2018-01-14T13:22:33.441Z,23.33
2018-01-14T13:27:44.289Z,20.67
2018-01-14T13:30:13.841Z,20.23
2018-01-14T13:32:51.615Z,30.47
2018-01-14T13:35:21.259Z,19.37
2018-01-14T13:37:50.380Z,22.23
2018-01-14T13:40:20.152Z,23.70
2018-01-14T13:42:48.452Z,17.87
2018-01-14T13:45:31.946Z,18.43
2018-01-14T13:50:43.889Z,18.67
2018-01-14T13:53:13.376Z,20.20
2018-01-14T13:55:58.456Z,20.00
2018-01-14T13:58:26.730Z,17.87
2018-01-14T14:00:58.057Z,23.87
2018-01-14T14:03:30.554Z,15.60
2018-01-14T14:06:00.068Z,20.00
2018-01-14T14:08:29.859Z,21.07
2018-01-14T14:11:03.898Z,22.27
2018-01-14T14:13:33.602Z,19.83
2018-01-14T14:16:03.191Z,23.97
2018-01-14T14:18:32.800Z,17.37
2018-01-14T14:21:06.450Z,26.57
2018-01-14T14:26:40.102Z,22.27
2018-01-14T14:29:09.664Z,25.63
2018-01-14T14:31:39.222Z,21.67
2018-01-14T14:34:09.732Z,23.73
2018-01-14T14:36:39.242Z,24.10
2018-01-14T14:39:07.469Z,16.37
2018-01-14T14:41:38.104Z,22.50
2018-01-14T14:46:59.637Z,26.40
2018-01-14T14:49:29.386Z,25.30
2018-01-14T14:51:59.013Z,30.07
2018-01-14T14:54:28.608Z,38.43
2018-01-14T14:57:02.571Z,25.30
2018-01-14T14:59:31.694Z,29.00
2018-01-14T15:02:04.056Z,28.97
2018-01-14T15:04:36.335Z,22.90
2018-01-14T15:07:05.993Z,26.20
2018-01-14T15:09:35.619Z,25.33
2018-01-14T15:12:03.868Z,19.17
2018-01-14T15:14:33.568Z,25.20
2018-01-14T15:17:02.187Z,30.33
2018-01-14T15:19:30.531Z,23.33
2018-01-14T15:22:01.657Z,24.87
2018-01-14T16:06:52.679Z,20.50
2018-01-14T16:09:20.960Z,24.83
2018-01-14T16:11:51.165Z,19.70
2018-01-14T16:14:19.531Z,21.43
2018-01-14T16:16:47.777Z,21.57
2018-01-14T16:19:17.417Z,19.70
2018-01-14T16:21:45.605Z,18.60
2018-01-14T16:24:16.246Z,23.50
2018-01-14T16:26:44.605Z,20.33
2018-01-14T16:29:14.325Z,19.67
2018-01-14T16:31:43.409Z,23.23
2018-01-14T16:34:13.047Z,18.90
2018-01-14T16:36:42.584Z,20.33
2018-01-14T16:39:12.077Z,18.33
2018-01-14T16:41:40.985Z,20.17
2018-01-14T16:44:10.637Z,15.90
2018-01-14T16:46:38.791Z,20.10
2018-01-14T16:49:07.981Z,18.47
2018-01-14T16:51:37.910Z,16.90
2018-01-14T16:54:07.643Z,20.63
2018-01-14T16:56:37.149Z,18.80
2018-01-14T16:59:06.968Z,19.90
2018-01-14T17:01:36.528Z,23.47
2018-01-14T17:04:06.120Z,21.70
2018-01-14T17:06:35.749Z,26.67
2018-01-14T17:09:05.135Z,22.67
2018-01-14T17:11:34.812Z,28.50
2018-01-14T17:14:12.905Z,24.90
2018-01-14T17:16:42.733Z,28.37
2018-01-14T17:19:11.560Z,27.43
2018-01-14T17:21:40.051Z,36.83
2018-01-14T17:24:08.353Z,26.63
2018-01-14T17:26:36.633Z,31.30
2018-01-14T17:29:06.087Z,24.50
2018-01-14T17:31:35.416Z,17.43
2018-01-14T17:34:05.110Z,25.90
2018-01-14T17:36:33.668Z,25.97
2018-01-14T17:39:03.464Z,21.50
2018-01-14T17:41:32.669Z,21.77
2018-01-14T17:44:00.930Z,35.77
2018-01-14T17:46:29.280Z,30.80
2018-01-14T17:49:00.594Z,25.00
2018-01-14T17:51:29.270Z,25.77
2018-01-14T17:53:57.605Z,27.37
2018-01-14T17:56:25.857Z,31.60
2018-01-14T17:58:55.637Z,25.93
2018-01-14T18:01:23.959Z,31.50
2018-01-14T18:03:53.394Z,25.87
2018-01-14T18:06:21.702Z,36.00
2018-01-14T18:08:50.384Z,35.40
2018-01-14T18:11:20.121Z,37.47
2018-01-14T18:13:48.853Z,29.83
2018-01-14T18:16:17.916Z,33.27
2018-01-14T18:18:46.197Z,30.63
2018-01-14T18:21:16.112Z,27.17
2018-01-14T18:23:44.513Z,31.27
2018-01-14T18:26:12.804Z,37.60
2018-01-14T18:28:41.102Z,37.40
2018-01-14T18:31:09.601Z,33.10
2018-01-14T18:33:38.879Z,33.53
2018-01-14T18:36:07.259Z,36.90
2018-01-14T18:38:35.542Z,35.63
2018-01-14T18:41:03.939Z,26.00
2018-01-14T18:43:33.599Z,33.00
2018-01-14T18:46:09.699Z,32.87
2018-01-14T18:48:38.052Z,36.17
2018-01-14T18:51:06.351Z,34.40
2018-01-14T18:53:34.735Z,30.93
2018-01-14T18:56:03.760Z,36.90
2018-01-14T18:58:32.792Z,42.63
2018-01-14T19:01:01.101Z,34.63
2018-01-14T19:03:30.687Z,38.73
2018-01-14T19:06:06.221Z,35.47
2018-01-14T19:08:36.849Z,40.83
2018-01-14T19:11:07.871Z,43.50
2018-01-14T19:13:36.113Z,30.20
2018-01-14T19:16:04.808Z,31.33
2018-01-14T19:18:33.127Z,40.43
2018-01-14T19:21:01.505Z,33.50
2018-01-14T19:23:31.055Z,38.67
2018-01-14T19:25:59.648Z,57.33
2018-01-14T19:28:28.635Z,39.30
2018-01-14T19:30:57.746Z,28.90
2018-01-14T19:33:26.026Z,36.80
2018-01-14T19:35:55.221Z,22.70
2018-01-14T19:38:24.868Z,26.47
2018-01-14T19:40:53.079Z,34.77
2018-01-14T19:43:22.232Z,40.03
2018-01-14T19:45:51.316Z,24.10
2018-01-14T19:48:19.700Z,27.63
2018-01-14T19:50:49.446Z,27.90
2018-01-14T19:53:28.429Z,32.10
2018-01-14T19:55:58.842Z,26.30
2018-01-14T20:04:43.378Z,27.93
2018-01-14T20:10:05.645Z,25.70
2018-01-14T20:12:39.236Z,30.97
2018-01-14T20:15:27.948Z,23.80
2018-01-14T20:18:02.135Z,32.47
2018-01-14T20:20:36.620Z,26.13
2018-01-14T20:23:15.934Z,37.07
2018-01-14T20:25:46.096Z,40.23
2018-01-14T20:28:17.935Z,38.73
2018-01-14T20:31:07.045Z,34.63
2018-01-14T20:33:36.741Z,27.50
2018-01-14T20:36:08.504Z,32.17
2018-01-14T20:38:38.437Z,37.40
2018-01-14T20:41:32.890Z,36.83
2018-01-14T20:44:22.830Z,28.67
2018-01-14T20:46:54.422Z,34.77
2018-01-14T20:49:26.708Z,34.80
2018-01-14T20:51:56.330Z,34.63
2018-01-14T20:54:24.514Z,38.43
2018-01-14T20:56:54.268Z,32.97
2018-01-14T20:59:24.954Z,35.50
2018-01-14T21:02:01.762Z,36.13
2018-01-14T21:04:31.409Z,32.13
2018-01-14T21:07:01.142Z,33.77
2018-01-14T21:09:30.706Z,30.97
2018-01-14T21:12:05.168Z,37.57
2018-01-14T21:14:33.690Z,40.17
2018-01-14T21:17:02.751Z,36.03
2018-01-14T21:19:31.086Z,64.00
2018-01-14T21:22:00.748Z,30.70
2018-01-14T21:24:30.283Z,42.70
2018-01-14T21:26:59.967Z,31.47
2018-01-14T21:29:29.535Z,42.23
2018-01-14T21:31:59.077Z,34.63
2018-01-14T21:34:28.679Z,31.87
2018-01-14T21:36:58.186Z,34.27
2018-01-14T21:39:27.796Z,34.90
2018-01-14T21:41:57.407Z,27.43
2018-01-14T21:56:53.383Z,42.57
2018-01-14T21:59:24.973Z,38.27
2018-01-14T22:01:54.577Z,41.90
2018-01-14T22:04:22.766Z,43.30
2018-01-14T22:06:52.425Z,38.80
2018-01-14T22:09:22.886Z,38.60
2018-01-14T22:14:47.622Z,32.17
2018-01-14T22:17:16.242Z,38.20
2018-01-14T22:19:46.939Z,37.57
2018-01-14T22:22:16.539Z,27.93
2018-01-14T22:24:46.337Z,37.10
2018-01-14T22:27:16.056Z,29.17
2018-01-14T22:29:45.654Z,30.60
2018-01-14T22:32:15.280Z,31.43
2018-01-14T22:34:44.982Z,41.67
2018-01-14T22:37:14.651Z,39.27
2018-01-14T22:39:44.344Z,38.40
2018-01-14T22:42:12.609Z,26.67
2018-01-14T22:44:42.257Z,34.97
2018-01-14T22:47:11.247Z,44.83
2018-01-14T22:49:41.000Z,35.90
2018-01-14T22:52:09.137Z,43.07
2018-01-14T22:54:38.853Z,38.10
2018-01-14T22:57:08.488Z,36.73
2018-01-14T22:59:38.341Z,42.13
2018-01-14T23:02:07.902Z,44.50
2018-01-14T23:04:37.403Z,50.47
2018-01-14T23:07:08.687Z,36.97
2018-01-14T23:09:39.253Z,48.27
2018-01-14T23:12:08.650Z,37.90
2018-01-14T23:14:38.280Z,46.43
2018-01-14T23:17:07.877Z,38.13
2018-01-14T23:19:43.529Z,35.80
2018-01-14T23:22:13.119Z,37.87
2018-01-14T23:24:42.586Z,40.80
2018-01-14T23:27:13.057Z,36.73
2018-01-14T23:29:43.304Z,42.87
2018-01-14T23:32:11.456Z,33.57
2018-01-14T23:34:41.099Z,43.13
2018-01-14T23:37:10.682Z,58.00
2018-01-14T23:39:40.238Z,44.30
2018-01-14T23:42:09.782Z,39.60
2018-01-14T23:44:39.320Z,45.73
2018-01-14T23:47:09.311Z,45.27
2018-01-14T23:49:39.040Z,71.87
2018-01-14T23:52:08.620Z,47.57
2018-01-14T23:54:38.172Z,39.50
2018-01-14T23:57:07.784Z,45.47
2018-01-14T23:59:37.302Z,38.33
